createdAt,value
2018-03-22T00:00:28.774Z,-2.50
2018-03-22T00:02:57.853Z,-2.50
2018-03-22T00:05:26.918Z,-2.50
2018-03-22T00:07:55.992Z,-2.50
2018-03-22T00:10:25.826Z,-2.60
2018-03-22T00:12:54.912Z,-2.70
2018-03-22T00:15:23.980Z,-2.70
2018-03-22T00:17:53.832Z,-2.80
2018-03-22T00:20:22.900Z,-2.80
2018-03-22T00:22:52.745Z,-3.00
2018-03-22T00:25:21.813Z,-3.00
2018-03-22T00:27:51.652Z,-3.10
2018-03-22T00:30:20.724Z,-3.10
2018-03-22T00:32:49.795Z,-3.10
2018-03-22T00:35:19.630Z,-3.10
2018-03-22T00:37:48.701Z,-3.10
2018-03-22T00:40:18.526Z,-3.10
2018-03-22T00:42:48.363Z,-3.10
2018-03-22T00:45:17.402Z,-3.10
2018-03-22T00:47:46.472Z,-3.10
2018-03-22T00:50:15.514Z,-3.20
2018-03-22T00:52:45.352Z,-3.30
2018-03-22T00:55:14.385Z,-3.30
2018-03-22T00:57:43.461Z,-3.30
2018-03-22T01:00:12.517Z,-3.30
2018-03-22T01:02:41.593Z,-3.30
2018-03-22T01:05:11.406Z,-3.40
2018-03-22T01:07:41.221Z,-3.40
2018-03-22T01:10:11.069Z,-3.50
2018-03-22T01:12:40.127Z,-3.50
2018-03-22T01:15:09.938Z,-3.60
2018-03-22T01:17:39.781Z,-3.60
2018-03-22T01:20:08.918Z,-3.70
2018-03-22T01:22:37.975Z,-3.70
2018-03-22T01:25:07.049Z,-3.70
2018-03-22T01:27:36.857Z,-3.90
2018-03-22T01:30:24.480Z,-3.90
2018-03-22T01:32:54.303Z,-4.00
2018-03-22T01:35:24.106Z,-4.00
2018-03-22T01:37:53.951Z,-4.10
2018-03-22T01:40:22.999Z,-4.10
2018-03-22T01:42:52.073Z,-4.10
2018-03-22T01:45:21.118Z,-4.10
2018-03-22T01:47:50.168Z,-4.10
2018-03-22T01:50:19.221Z,-4.10
2018-03-22T01:53:06.216Z,-4.20
2018-03-22T01:55:36.021Z,-4.30
2018-03-22T01:58:05.830Z,-4.40
2018-03-22T02:00:35.662Z,-4.30
2018-03-22T02:03:04.711Z,-4.40
2018-03-22T02:05:33.794Z,-4.40
2018-03-22T02:08:02.848Z,-4.40
2018-03-22T02:10:31.894Z,-4.40
2018-03-22T02:13:00.982Z,-4.40
2018-03-22T02:15:30.033Z,-4.40
2018-03-22T02:17:59.087Z,-4.40
2018-03-22T02:20:28.185Z,-4.40
2018-03-22T02:22:58.004Z,-4.40
2018-03-22T02:25:27.825Z,-4.40
2018-03-22T02:27:57.629Z,-4.40
2018-03-22T02:30:27.469Z,-4.50
2018-03-22T02:32:56.511Z,-4.50
2018-03-22T02:35:25.550Z,-4.50
2018-03-22T02:37:54.632Z,-4.50
2018-03-22T02:40:24.433Z,-4.50
2018-03-22T02:42:54.243Z,-4.50
2018-03-22T02:45:24.099Z,-4.50
2018-03-22T02:47:53.138Z,-4.50
2018-03-22T02:50:22.189Z,-4.50
2018-03-22T02:52:51.275Z,-4.60
2018-03-22T02:55:20.314Z,-4.70
2018-03-22T02:57:49.361Z,-4.70
2018-03-22T03:00:18.456Z,-4.80
2018-03-22T03:02:47.514Z,-4.80
2018-03-22T03:05:17.326Z,-4.90
2018-03-22T03:07:47.173Z,-4.90
2018-03-22T03:10:16.222Z,-5.00
2018-03-22T03:12:45.266Z,-5.00
2018-03-22T03:15:14.330Z,-5.10
2018-03-22T03:17:44.145Z,-5.30
2018-03-22T03:20:13.961Z,-5.20
2018-03-22T03:22:43.246Z,-5.20
2018-03-22T03:25:13.071Z,-5.20
2018-03-22T03:27:42.913Z,-5.20
2018-03-22T03:30:11.967Z,-5.20
2018-03-22T03:32:41.774Z,-5.20
2018-03-22T03:35:11.637Z,-5.30
2018-03-22T03:37:40.682Z,-5.30
2018-03-22T03:40:10.493Z,-5.30
2018-03-22T03:42:40.314Z,-5.30
2018-03-22T03:45:10.127Z,-5.30
2018-03-22T03:47:39.977Z,-5.20
2018-03-22T03:50:09.028Z,-5.30
2018-03-22T03:52:38.057Z,-5.20
2018-03-22T03:55:07.171Z,-5.30
2018-03-22T03:57:36.221Z,-5.40
2018-03-22T04:00:06.041Z,-5.50
2018-03-22T04:02:35.118Z,-5.50
2018-03-22T04:05:04.914Z,-5.50
2018-03-22T04:07:33.966Z,-5.50
2018-03-22T04:10:03.033Z,-5.50
2018-03-22T04:12:32.080Z,-5.60
2018-03-22T04:15:01.132Z,-5.60
2018-03-22T04:17:30.221Z,-5.70
2018-03-22T04:19:59.294Z,-5.80
2018-03-22T04:22:29.105Z,-5.90
2018-03-22T04:24:58.976Z,-5.90
2018-03-22T04:27:28.017Z,-5.90
2018-03-22T04:29:57.830Z,-5.80
2018-03-22T04:32:27.699Z,-5.80
2018-03-22T04:34:56.746Z,-5.80
2018-03-22T04:37:25.803Z,-5.80
2018-03-22T04:39:54.890Z,-5.70
2018-03-22T04:42:23.938Z,-5.70
2018-03-22T04:44:52.986Z,-5.70
2018-03-22T04:47:22.063Z,-5.70
2018-03-22T04:49:51.102Z,-5.60
2018-03-22T04:52:20.913Z,-5.70
2018-03-22T04:54:50.767Z,-5.80
2018-03-22T04:57:19.823Z,-5.80
2018-03-22T04:59:49.629Z,-5.80
2018-03-22T05:02:19.479Z,-5.80
2018-03-22T05:04:48.516Z,-5.90
2018-03-22T05:07:17.581Z,-5.80
2018-03-22T05:09:46.676Z,-5.80
2018-03-22T05:12:15.729Z,-5.80
2018-03-22T05:14:45.533Z,-5.80
2018-03-22T05:17:15.380Z,-5.80
2018-03-22T05:19:44.438Z,-5.80
2018-03-22T05:22:14.254Z,-5.80
2018-03-22T05:24:44.092Z,-5.80
2018-03-22T05:27:13.353Z,-5.80
2018-03-22T05:29:43.174Z,-5.70
2018-03-22T05:32:13.010Z,-5.70
2018-03-22T05:34:42.061Z,-5.70
2018-03-22T05:37:11.109Z,-5.60
2018-03-22T05:39:40.181Z,-5.50
2018-03-22T05:42:09.253Z,-5.50
2018-03-22T05:44:39.097Z,-5.40
2018-03-22T05:47:08.183Z,-5.40
2018-03-22T05:49:37.238Z,-5.30
2018-03-22T05:52:06.275Z,-5.30
2018-03-22T05:54:35.671Z,-5.20
2018-03-22T05:57:05.482Z,-5.20
2018-03-22T05:59:34.586Z,-5.20
2018-03-22T06:02:03.665Z,-5.10
2018-03-22T06:04:33.482Z,-5.00
2018-03-22T06:07:03.315Z,-5.00
2018-03-22T06:09:32.381Z,-5.00
2018-03-22T06:12:02.195Z,-4.80
2018-03-22T06:14:32.017Z,-4.80
2018-03-22T06:17:01.828Z,-4.70
2018-03-22T06:19:30.881Z,-4.70
2018-03-22T06:21:59.953Z,-4.60
2018-03-22T06:24:29.002Z,-4.50
2018-03-22T06:26:58.818Z,-4.40
2018-03-22T06:29:28.049Z,-4.40
2018-03-22T06:31:57.106Z,-4.30
2018-03-22T06:34:26.941Z,-4.20
2018-03-22T06:36:56.006Z,-4.20
2018-03-22T06:39:25.831Z,-4.10
2018-03-22T06:41:55.664Z,-4.00
2018-03-22T06:44:24.754Z,-4.10
2018-03-22T06:46:53.827Z,-4.00
2018-03-22T06:49:23.634Z,-3.80
2018-03-22T06:51:53.474Z,-3.80
2018-03-22T06:54:22.522Z,-3.80
2018-03-22T06:56:51.614Z,-3.70
2018-03-22T06:59:20.660Z,-3.60
2018-03-22T07:01:49.706Z,-3.50
2018-03-22T07:04:18.809Z,-3.50
2018-03-22T07:06:48.626Z,-3.30
2018-03-22T07:09:18.465Z,-3.20
2018-03-22T07:11:47.514Z,-3.20
2018-03-22T07:14:16.637Z,-3.20
2018-03-22T07:16:46.469Z,-3.00
2018-03-22T07:19:15.509Z,-3.00
2018-03-22T07:21:44.571Z,-2.90
2018-03-22T07:24:13.621Z,-2.80
2018-03-22T07:26:42.785Z,-2.70
2018-03-22T07:29:12.751Z,-2.60
2018-03-22T07:31:43.346Z,-2.40
2018-03-22T07:34:12.419Z,-2.40
2018-03-22T07:36:41.467Z,-2.30
2018-03-22T07:39:11.280Z,-2.20
2018-03-22T07:41:41.134Z,-2.10
2018-03-22T07:44:11.851Z,-2.10
2018-03-22T07:46:40.908Z,-2.00
2018-03-22T07:49:10.725Z,-1.80
2018-03-22T07:51:40.544Z,-1.70
2018-03-22T07:54:10.394Z,-1.60
2018-03-22T07:56:39.438Z,-1.60
2018-03-22T07:59:09.254Z,-1.40
2018-03-22T08:01:39.094Z,-1.30
2018-03-22T08:04:08.146Z,-1.40
2018-03-22T08:06:37.197Z,-1.30
2018-03-22T08:09:06.317Z,-1.30
2018-03-22T08:11:35.359Z,-1.20
2018-03-22T08:14:04.409Z,-1.20
2018-03-22T08:16:33.499Z,-1.00
2018-03-22T08:19:02.616Z,-1.00
2018-03-22T08:21:32.441Z,-0.90
2018-03-22T08:24:02.295Z,-0.70
2018-03-22T08:26:31.344Z,-0.70
2018-03-22T08:29:00.384Z,-0.50
2018-03-22T08:31:29.551Z,-0.30
2018-03-22T08:33:58.627Z,-0.40
2018-03-22T08:36:27.667Z,-0.30
2018-03-22T08:38:56.736Z,-0.10
2018-03-22T08:41:25.861Z,-0.10
2018-03-22T08:43:54.868Z,-0.10
2018-03-22T08:46:23.969Z,-0.10
2018-03-22T08:48:53.013Z,0.10
2018-03-22T08:51:22.811Z,0.30
2018-03-22T08:53:52.650Z,0.30
2018-03-22T08:56:21.745Z,0.30
2018-03-22T08:58:50.789Z,0.30
2018-03-22T09:01:19.871Z,0.40
2018-03-22T09:03:48.910Z,0.60
2018-03-22T09:06:18.710Z,1.00
2018-03-22T09:08:48.552Z,1.10
2018-03-22T09:11:17.589Z,1.10
2018-03-22T09:13:46.653Z,1.20
2018-03-22T09:16:15.715Z,1.30
2018-03-22T09:18:45.603Z,1.50
2018-03-22T09:21:15.387Z,1.50
2018-03-22T09:23:44.420Z,1.50
2018-03-22T09:26:15.067Z,1.90
2018-03-22T09:28:44.904Z,2.10
2018-03-22T09:31:13.940Z,2.10
2018-03-22T09:33:42.982Z,2.30
2018-03-22T09:36:12.838Z,2.60
2018-03-22T09:38:42.490Z,2.60
2018-03-22T09:41:12.297Z,3.00
2018-03-22T09:43:42.105Z,3.10
2018-03-22T09:46:11.913Z,3.40
2018-03-22T09:48:41.743Z,3.50
2018-03-22T09:51:11.554Z,3.60
2018-03-22T09:53:41.427Z,3.60
2018-03-22T09:56:10.425Z,3.50
2018-03-22T09:58:39.509Z,3.70
2018-03-22T10:01:08.588Z,3.80
2018-03-22T10:03:37.613Z,4.10
2018-03-22T10:06:06.662Z,4.20
2018-03-22T10:08:35.758Z,4.40
2018-03-22T10:11:04.798Z,4.50
2018-03-22T10:13:33.833Z,4.70
2018-03-22T10:16:02.896Z,4.60
2018-03-22T10:18:31.914Z,4.70
2018-03-22T10:21:00.948Z,5.10
2018-03-22T10:23:30.017Z,5.30
2018-03-22T10:25:59.140Z,5.70
2018-03-22T10:28:28.151Z,5.80
2018-03-22T10:30:57.222Z,5.70
2018-03-22T10:33:26.259Z,5.70
2018-03-22T10:35:56.054Z,6.40
2018-03-22T10:38:25.154Z,6.30
2018-03-22T10:40:54.178Z,6.70
2018-03-22T10:43:23.224Z,7.00
2018-03-22T10:45:52.270Z,7.40
2018-03-22T10:48:21.376Z,7.80
2018-03-22T10:50:50.353Z,8.00
2018-03-22T10:53:19.420Z,8.20
2018-03-22T10:55:48.544Z,8.50
2018-03-22T10:58:17.536Z,8.50
2018-03-22T11:00:52.130Z,8.80
2018-03-22T11:03:26.634Z,9.30
2018-03-22T11:05:55.669Z,9.40
2018-03-22T11:08:25.506Z,9.60
2018-03-22T11:10:54.563Z,9.60
2018-03-22T11:13:24.369Z,9.90
2018-03-22T11:15:53.442Z,9.90
2018-03-22T11:18:22.473Z,9.90
2018-03-22T11:20:51.538Z,9.80
2018-03-22T11:23:20.597Z,10.30
2018-03-22T11:25:49.652Z,10.80
2018-03-22T11:28:19.505Z,11.30
2018-03-22T11:30:48.581Z,11.30
2018-03-22T11:33:17.663Z,11.60
2018-03-22T11:35:46.715Z,11.90
2018-03-22T11:38:15.798Z,11.70
2018-03-22T11:40:44.912Z,12.10
2018-03-22T11:43:13.941Z,12.40
2018-03-22T11:45:43.027Z,12.80
2018-03-22T11:48:12.839Z,13.00
2018-03-22T11:50:42.677Z,12.90
2018-03-22T11:53:11.717Z,12.90
2018-03-22T11:55:40.781Z,12.80
2018-03-22T11:58:09.861Z,12.90
2018-03-22T12:00:38.910Z,12.60
2018-03-22T12:03:07.955Z,12.40
2018-03-22T12:05:37.029Z,12.20
2018-03-22T12:08:06.122Z,11.60
2018-03-22T12:10:35.969Z,10.80
2018-03-22T12:13:05.006Z,10.70
2018-03-22T12:15:34.848Z,11.00
2018-03-22T12:18:03.920Z,11.00
2018-03-22T12:20:33.746Z,11.20
2018-03-22T12:23:02.806Z,11.20
2018-03-22T12:25:31.888Z,11.10
2018-03-22T12:28:01.960Z,10.80
2018-03-22T12:30:31.029Z,10.80
2018-03-22T12:33:00.094Z,11.10
2018-03-22T12:35:29.147Z,11.40
2018-03-22T12:37:58.218Z,11.70
2018-03-22T12:40:28.025Z,11.80
2018-03-22T12:42:57.203Z,11.70
2018-03-22T12:45:26.234Z,12.10
2018-03-22T12:47:55.310Z,12.50
2018-03-22T12:50:25.128Z,13.00
2018-03-22T12:52:54.978Z,13.30
2018-03-22T12:55:24.044Z,13.30
2018-03-22T12:57:53.909Z,14.40
2018-03-22T13:00:23.759Z,14.30
2018-03-22T13:02:53.599Z,14.40
2018-03-22T13:05:22.647Z,14.40
2018-03-22T13:07:51.713Z,14.60
2018-03-22T13:10:20.802Z,14.40
2018-03-22T13:12:49.866Z,14.50
2018-03-22T13:15:18.909Z,14.50
2018-03-22T13:17:47.995Z,14.60
2018-03-22T13:20:17.083Z,14.60
2018-03-22T13:22:46.158Z,14.60
2018-03-22T13:25:15.238Z,14.40
2018-03-22T13:27:44.268Z,14.20
2018-03-22T13:30:13.324Z,14.00
2018-03-22T13:32:43.167Z,13.40
2018-03-22T13:35:12.240Z,13.40
2018-03-22T13:37:41.735Z,13.30
2018-03-22T13:40:11.255Z,13.10
2018-03-22T13:42:40.301Z,12.80
2018-03-22T13:45:09.373Z,12.40
2018-03-22T13:47:38.426Z,12.30
2018-03-22T13:50:08.247Z,12.70
2018-03-22T13:52:37.295Z,12.70
2018-03-22T13:55:06.364Z,13.00
2018-03-22T13:57:35.446Z,12.70
2018-03-22T14:00:04.522Z,12.80
2018-03-22T14:02:33.573Z,12.70
2018-03-22T14:05:02.654Z,12.90
2018-03-22T14:07:31.697Z,12.90
2018-03-22T14:10:00.762Z,13.10
2018-03-22T14:12:29.809Z,13.40
2018-03-22T14:14:58.879Z,13.30
2018-03-22T14:17:28.721Z,13.30
2018-03-22T14:19:57.790Z,13.30
2018-03-22T14:22:26.840Z,13.20
2018-03-22T14:24:55.920Z,12.70
2018-03-22T14:27:24.999Z,12.60
2018-03-22T14:29:54.102Z,12.80
2018-03-22T14:32:23.125Z,13.00
2018-03-22T14:34:52.202Z,13.00
2018-03-22T14:37:21.264Z,12.90
2018-03-22T14:39:50.325Z,13.10
2018-03-22T14:42:20.166Z,12.90
2018-03-22T14:44:49.230Z,12.90
2018-03-22T14:47:19.041Z,13.30
2018-03-22T14:49:48.888Z,13.40
2018-03-22T14:52:17.944Z,13.40
2018-03-22T14:54:47.024Z,13.30
2018-03-22T14:57:16.113Z,13.30
2018-03-22T14:59:45.734Z,13.30
2018-03-22T15:02:14.806Z,13.20
2018-03-22T15:04:43.851Z,13.20
2018-03-22T15:07:12.977Z,13.10
2018-03-22T15:09:42.023Z,12.80
2018-03-22T15:12:11.089Z,12.80
2018-03-22T15:14:40.166Z,13.20
2018-03-22T15:17:09.210Z,13.40
2018-03-22T15:19:39.032Z,13.70
2018-03-22T15:22:08.860Z,14.00
2018-03-22T15:24:37.932Z,14.00
2018-03-22T15:27:07.770Z,14.10
2018-03-22T15:29:37.623Z,14.10
2018-03-22T15:32:07.159Z,14.00
2018-03-22T15:34:36.978Z,14.40
2018-03-22T15:37:06.811Z,14.50
2018-03-22T15:39:35.957Z,14.50
2018-03-22T15:42:05.006Z,14.50
2018-03-22T15:44:34.853Z,14.70
2018-03-22T15:47:03.905Z,14.70
2018-03-22T15:49:32.946Z,15.00
2018-03-22T15:52:02.063Z,15.10
2018-03-22T15:54:32.613Z,15.20
2018-03-22T15:57:02.424Z,15.20
2018-03-22T15:59:32.242Z,15.40
2018-03-22T16:02:01.298Z,15.40
2018-03-22T16:04:30.370Z,14.90
2018-03-22T16:06:59.410Z,14.50
2018-03-22T16:09:29.274Z,14.00
2018-03-22T16:11:58.335Z,14.00
2018-03-22T16:14:28.142Z,12.50
2018-03-22T16:16:57.234Z,12.50
2018-03-22T16:19:26.455Z,11.30
2018-03-22T16:21:55.466Z,10.40
2018-03-22T16:24:24.553Z,9.90
2018-03-22T16:26:53.596Z,9.30
2018-03-22T16:29:22.671Z,8.90
2018-03-22T16:31:51.834Z,8.40
2018-03-22T16:34:20.881Z,8.00
2018-03-22T16:36:49.970Z,7.80
2018-03-22T16:39:18.999Z,7.40
2018-03-22T16:41:48.924Z,7.10
2018-03-22T16:44:17.958Z,7.00
2018-03-22T16:46:47.024Z,6.80
2018-03-22T16:49:16.060Z,6.70
2018-03-22T16:51:45.141Z,6.60
2018-03-22T16:54:14.185Z,6.50
2018-03-22T16:56:43.237Z,6.40
2018-03-22T16:59:12.313Z,6.30
2018-03-22T17:01:41.439Z,6.00
2018-03-22T17:04:10.502Z,5.80
2018-03-22T17:06:39.583Z,5.60
2018-03-22T17:09:08.715Z,5.50
2018-03-22T17:11:37.730Z,5.30
2018-03-22T17:14:07.610Z,5.00
2018-03-22T17:16:36.703Z,5.00
2018-03-22T17:19:05.744Z,4.90
2018-03-22T17:21:35.579Z,4.60
2018-03-22T17:24:04.695Z,4.50
2018-03-22T17:26:33.787Z,4.50
2018-03-22T17:29:02.854Z,4.40
2018-03-22T17:31:31.896Z,4.30
2018-03-22T17:34:00.919Z,4.20
2018-03-22T17:36:30.879Z,4.00
2018-03-22T17:38:59.918Z,4.00
2018-03-22T17:41:29.011Z,3.90
2018-03-22T17:43:58.184Z,3.80
2018-03-22T17:46:27.337Z,3.60
2018-03-22T17:48:57.251Z,3.60
2018-03-22T17:51:27.322Z,3.40
2018-03-22T17:53:56.514Z,3.40
2018-03-22T17:56:25.809Z,3.30
2018-03-22T17:58:55.044Z,3.20
2018-03-22T18:01:24.354Z,3.20
2018-03-22T18:03:53.566Z,3.20
2018-03-22T18:06:23.665Z,3.00
2018-03-22T18:08:52.881Z,3.00
2018-03-22T18:11:22.845Z,2.90
2018-03-22T18:13:52.147Z,2.90
2018-03-22T18:16:22.208Z,2.50
2018-03-22T18:18:51.439Z,2.50
2018-03-22T18:21:20.758Z,2.40
2018-03-22T18:23:50.017Z,2.30
2018-03-22T18:26:20.057Z,2.40
2018-03-22T18:28:49.279Z,2.30
2018-03-22T18:31:18.595Z,2.30
2018-03-22T18:33:47.990Z,2.20
2018-03-22T18:36:17.278Z,2.10
2018-03-22T18:38:46.486Z,2.10
2018-03-22T18:41:15.728Z,2.10
2018-03-22T18:43:45.808Z,2.10
2018-03-22T18:46:15.186Z,2.10
2018-03-22T18:48:44.210Z,2.00
2018-03-22T18:51:13.435Z,2.00
2018-03-22T18:53:43.546Z,2.00
2018-03-22T18:56:12.842Z,1.90
2018-03-22T18:58:42.160Z,1.90
2018-03-22T19:01:12.367Z,1.80
2018-03-22T19:03:41.676Z,1.80
2018-03-22T19:06:11.730Z,1.60
2018-03-22T19:08:41.026Z,1.60
2018-03-22T19:11:10.302Z,1.60
2018-03-22T19:13:40.396Z,1.50
2018-03-22T19:16:09.673Z,1.50
2018-03-22T19:18:38.978Z,1.50
2018-03-22T19:21:08.393Z,1.50
2018-03-22T19:23:37.706Z,1.50
2018-03-22T19:26:06.977Z,1.40
2018-03-22T19:28:36.407Z,1.40
2018-03-22T19:31:05.691Z,1.40
2018-03-22T19:33:34.950Z,1.40
2018-03-22T19:36:04.270Z,1.30
2018-03-22T19:38:33.561Z,1.30
2018-03-22T19:41:02.892Z,1.20
2018-03-22T19:43:32.240Z,1.20
2018-03-22T19:46:01.513Z,1.20
2018-03-22T19:48:31.648Z,1.10
2018-03-22T19:51:00.975Z,1.10
2018-03-22T19:53:30.240Z,1.20
2018-03-22T19:55:59.608Z,1.20
2018-03-22T19:58:28.930Z,1.20
2018-03-22T20:00:58.992Z,1.10
2018-03-22T20:03:28.614Z,1.00
2018-03-22T20:05:57.909Z,1.00
2018-03-22T20:08:27.249Z,1.00
2018-03-22T20:10:56.584Z,0.90
2018-03-22T20:13:25.884Z,1.00
2018-03-22T20:15:55.120Z,1.00
2018-03-22T20:18:25.211Z,0.90
2018-03-22T20:20:54.464Z,0.90
2018-03-22T20:23:23.784Z,0.90
2018-03-22T20:25:53.149Z,0.80
2018-03-22T20:28:22.715Z,0.70
2018-03-22T20:30:52.031Z,0.60
2018-03-22T20:33:21.415Z,0.50
2018-03-22T20:35:50.687Z,0.40
2018-03-22T20:38:20.861Z,0.30
2018-03-22T20:40:50.023Z,0.30
2018-03-22T20:43:19.286Z,0.30
2018-03-22T20:45:48.547Z,0.30
2018-03-22T20:48:17.726Z,0.30
2018-03-22T20:50:47.035Z,0.30
2018-03-22T20:53:16.281Z,0.30
2018-03-22T20:55:45.424Z,0.30
2018-03-22T20:58:15.429Z,0.20
2018-03-22T21:00:44.656Z,0.20
2018-03-22T21:03:13.719Z,0.20
2018-03-22T21:05:42.742Z,0.20
2018-03-22T21:08:11.866Z,0.20
2018-03-22T21:10:40.909Z,0.10
2018-03-22T21:13:09.933Z,0.10
2018-03-22T21:15:39.054Z,0.00
2018-03-22T21:18:08.674Z,-0.10
2018-03-22T21:20:38.474Z,0.00
2018-03-22T21:23:08.323Z,0.00
2018-03-22T21:25:37.345Z,0.00
2018-03-22T21:28:06.379Z,0.00
2018-03-22T21:30:36.206Z,-0.10
2018-03-22T21:33:05.246Z,-0.10
2018-03-22T21:35:34.293Z,-0.10
2018-03-22T21:38:03.481Z,-0.10
2018-03-22T21:40:32.503Z,-0.10
2018-03-22T21:43:01.557Z,-0.10
2018-03-22T21:45:31.394Z,-0.20
2018-03-22T21:48:00.441Z,-0.30
2018-03-22T21:50:47.482Z,-0.30
2018-03-22T21:53:17.518Z,-0.40
2018-03-22T21:55:46.562Z,-0.40
2018-03-22T21:58:15.621Z,-0.50
2018-03-22T22:00:45.452Z,-0.50
2018-03-22T22:03:15.194Z,-0.60
2018-03-22T22:05:44.237Z,-0.60
2018-03-22T22:08:13.293Z,-0.60
2018-03-22T22:10:43.245Z,-0.70
2018-03-22T22:13:12.288Z,-0.70
2018-03-22T22:15:41.404Z,-0.70
2018-03-22T22:18:11.264Z,-0.70
2018-03-22T22:20:40.314Z,-0.70
2018-03-22T22:23:10.163Z,-0.80
2018-03-22T22:25:39.248Z,-0.80
2018-03-22T22:28:08.302Z,-0.80
2018-03-22T22:30:37.355Z,-0.80
2018-03-22T22:33:06.407Z,-0.90
2018-03-22T22:35:36.231Z,-1.10
2018-03-22T22:38:05.273Z,-1.10
2018-03-22T22:40:34.362Z,-1.10
2018-03-22T22:43:03.415Z,-1.10
2018-03-22T22:45:32.470Z,-1.10
2018-03-22T22:48:01.615Z,-1.20
2018-03-22T22:50:30.615Z,-1.30
2018-03-22T22:52:59.670Z,-1.40
2018-03-22T22:55:29.723Z,-1.40
2018-03-22T22:57:58.769Z,-1.40
2018-03-22T23:00:27.811Z,-1.40
2018-03-22T23:02:56.896Z,-1.30
2018-03-22T23:05:25.934Z,-1.40
2018-03-22T23:07:54.999Z,-1.30
2018-03-22T23:10:24.093Z,-1.30
2018-03-22T23:12:53.169Z,-1.40
2018-03-22T23:15:22.227Z,-1.40
2018-03-22T23:17:51.334Z,-1.40
2018-03-22T23:20:20.378Z,-1.40
2018-03-22T23:22:49.429Z,-1.40
2018-03-22T23:25:19.265Z,-1.40
2018-03-22T23:27:48.347Z,-1.40
2018-03-22T23:30:18.146Z,-1.40
2018-03-22T23:32:47.998Z,-1.50
2018-03-22T23:35:17.051Z,-1.50
2018-03-22T23:37:46.861Z,-1.70
2018-03-22T23:40:16.705Z,-1.70
2018-03-22T23:42:45.754Z,-1.70
2018-03-22T23:45:14.793Z,-1.70
2018-03-22T23:47:43.889Z,-1.70
2018-03-22T23:50:12.946Z,-1.70
2018-03-22T23:52:41.986Z,-1.70
2018-03-22T23:55:11.061Z,-1.70
2018-03-22T23:57:40.137Z,-1.70
